sensor_id;sensor_type;location;lat;lon;timestamp;temperature;humidity
14471;DHT22;7321;50.802;4.336;2023-11-21T00:00:31;11.80;99.90
14471;DHT22;7321;50.802;4.336;2023-11-21T00:02:57;11.80;99.90
14471;DHT22;7321;50.802;4.336;2023-11-21T00:05:23;11.80;99.90
14471;DHT22;7321;50.802;4.336;2023-11-21T00:07:49;11.90;99.90
14471;DHT22;7321;50.802;4.336;2023-11-21T00:10:15;12.00;99.90
14471;DHT22;7321;50.802;4.336;2023-11-21T00:12:41;11.90;99.90
14471;DHT22;7321;50.802;4.336;2023-11-21T00:15:08;11.80;99.90
14471;DHT22;7321;50.802;4.336;2023-11-21T00:17:37;11.80;99.90
14471;DHT22;7321;50.802;4.336;2023-11-21T00:20:05;11.90;99.90
14471;DHT22;7321;50.802;4.336;2023-11-21T00:22:34;11.90;99.90
14471;DHT22;7321;50.802;4.336;2023-11-21T00:25:00;11.90;99.90
14471;DHT22;7321;50.802;4.336;2023-11-21T00:27:25;11.90;99.90
14471;DHT22;7321;50.802;4.336;2023-11-21T00:29:51;11.80;99.90
14471;DHT22;7321;50.802;4.336;2023-11-21T00:32:17;11.80;99.90
14471;DHT22;7321;50.802;4.336;2023-11-21T00:34:43;11.70;99.90
14471;DHT22;7321;50.802;4.336;2023-11-21T00:37:08;11.80;99.90
14471;DHT22;7321;50.802;4.336;2023-11-21T00:39:34;11.80;99.90
14471;DHT22;7321;50.802;4.336;2023-11-21T00:42:00;11.70;99.90
14471;DHT22;7321;50.802;4.336;2023-11-21T00:44:26;11.80;99.90
14471;DHT22;7321;50.802;4.336;2023-11-21T00:46:52;11.80;99.90
14471;DHT22;7321;50.802;4.336;2023-11-21T00:49:18;11.70;99.90
14471;DHT22;7321;50.802;4.336;2023-11-21T00:51:44;11.70;99.90
14471;DHT22;7321;50.802;4.336;2023-11-21T00:54:10;11.60;99.90
14471;DHT22;7321;50.802;4.336;2023-11-21T00:56:36;11.50;99.90
14471;DHT22;7321;50.802;4.336;2023-11-21T00:59:02;11.50;99.90
14471;DHT22;7321;50.802;4.336;2023-11-21T01:01:30;11.40;99.90
14471;DHT22;7321;50.802;4.336;2023-11-21T01:03:56;11.40;99.90
14471;DHT22;7321;50.802;4.336;2023-11-21T01:06:22;11.40;99.90
14471;DHT22;7321;50.802;4.336;2023-11-21T01:08:48;11.40;99.90
14471;DHT22;7321;50.802;4.336;2023-11-21T01:11:14;11.40;99.90
14471;DHT22;7321;50.802;4.336;2023-11-21T01:13:41;11.50;99.90
14471;DHT22;7321;50.802;4.336;2023-11-21T01:16:07;11.40;99.90
14471;DHT22;7321;50.802;4.336;2023-11-21T01:18:33;11.40;99.90
14471;DHT22;7321;50.802;4.336;2023-11-21T01:20:59;11.50;99.90
14471;DHT22;7321;50.802;4.336;2023-11-21T01:23:27;11.50;99.90
14471;DHT22;7321;50.802;4.336;2023-11-21T01:25:55;11.50;99.90
14471;DHT22;7321;50.802;4.336;2023-11-21T01:28:21;11.50;99.90
14471;DHT22;7321;50.802;4.336;2023-11-21T01:30:48;11.60;99.90
14471;DHT22;7321;50.802;4.336;2023-11-21T01:33:14;11.60;99.90
14471;DHT22;7321;50.802;4.336;2023-11-21T01:35:41;11.70;99.90
14471;DHT22;7321;50.802;4.336;2023-11-21T01:38:08;11.70;99.90
14471;DHT22;7321;50.802;4.336;2023-11-21T01:40:34;11.70;99.90
14471;DHT22;7321;50.802;4.336;2023-11-21T01:43:00;11.80;99.90
14471;DHT22;7321;50.802;4.336;2023-11-21T01:45:29;11.80;99.90
14471;DHT22;7321;50.802;4.336;2023-11-21T01:47:57;11.80;99.90
14471;DHT22;7321;50.802;4.336;2023-11-21T01:50:24;11.80;99.90
14471;DHT22;7321;50.802;4.336;2023-11-21T01:52:50;11.80;99.90
14471;DHT22;7321;50.802;4.336;2023-11-21T01:55:17;11.80;99.90
14471;DHT22;7321;50.802;4.336;2023-11-21T01:57:45;11.80;99.90
14471;DHT22;7321;50.802;4.336;2023-11-21T02:00:12;11.80;99.90
14471;DHT22;7321;50.802;4.336;2023-11-21T02:02:47;11.80;99.90
14471;DHT22;7321;50.802;4.336;2023-11-21T02:05:15;11.80;99.90
14471;DHT22;7321;50.802;4.336;2023-11-21T02:07:42;11.80;99.90
14471;DHT22;7321;50.802;4.336;2023-11-21T02:10:08;11.70;99.90
14471;DHT22;7321;50.802;4.336;2023-11-21T02:12:35;11.70;99.90
14471;DHT22;7321;50.802;4.336;2023-11-21T02:15:02;11.70;99.90
14471;DHT22;7321;50.802;4.336;2023-11-21T02:17:31;11.70;99.90
14471;DHT22;7321;50.802;4.336;2023-11-21T02:19:58;11.80;99.90
14471;DHT22;7321;50.802;4.336;2023-11-21T02:22:28;11.80;99.90
14471;DHT22;7321;50.802;4.336;2023-11-21T02:24:56;11.70;99.90
14471;DHT22;7321;50.802;4.336;2023-11-21T02:27:24;11.60;99.90
14471;DHT22;7321;50.802;4.336;2023-11-21T02:29:50;11.60;99.90
14471;DHT22;7321;50.802;4.336;2023-11-21T02:32:16;11.60;99.90
14471;DHT22;7321;50.802;4.336;2023-11-21T02:34:44;11.60;99.90
14471;DHT22;7321;50.802;4.336;2023-11-21T02:37:10;11.60;99.90
14471;DHT22;7321;50.802;4.336;2023-11-21T02:39:36;11.70;99.90
14471;DHT22;7321;50.802;4.336;2023-11-21T02:42:03;11.70;99.90
14471;DHT22;7321;50.802;4.336;2023-11-21T02:44:29;11.40;99.90
14471;DHT22;7321;50.802;4.336;2023-11-21T02:46:55;11.30;99.90
14471;DHT22;7321;50.802;4.336;2023-11-21T02:49:23;11.20;99.90
14471;DHT22;7321;50.802;4.336;2023-11-21T02:51:49;11.30;99.90
14471;DHT22;7321;50.802;4.336;2023-11-21T02:54:14;11.20;99.90
14471;DHT22;7321;50.802;4.336;2023-11-21T02:56:42;11.30;99.90
14471;DHT22;7321;50.802;4.336;2023-11-21T02:59:08;11.30;99.90
14471;DHT22;7321;50.802;4.336;2023-11-21T03:01:34;11.30;99.90
14471;DHT22;7321;50.802;4.336;2023-11-21T03:04:00;11.30;99.90
14471;DHT22;7321;50.802;4.336;2023-11-21T03:06:27;11.40;99.90
14471;DHT22;7321;50.802;4.336;2023-11-21T03:08:53;11.30;99.90
14471;DHT22;7321;50.802;4.336;2023-11-21T03:11:19;11.30;99.90
14471;DHT22;7321;50.802;4.336;2023-11-21T03:13:44;11.30;99.90
14471;DHT22;7321;50.802;4.336;2023-11-21T03:16:11;11.30;99.90
14471;DHT22;7321;50.802;4.336;2023-11-21T03:18:38;11.30;99.90
14471;DHT22;7321;50.802;4.336;2023-11-21T03:21:04;11.20;99.90
14471;DHT22;7321;50.802;4.336;2023-11-21T03:23:31;11.20;99.90
14471;DHT22;7321;50.802;4.336;2023-11-21T03:25:57;11.10;99.90
14471;DHT22;7321;50.802;4.336;2023-11-21T03:28:23;10.90;99.90
14471;DHT22;7321;50.802;4.336;2023-11-21T03:30:49;10.80;99.90
14471;DHT22;7321;50.802;4.336;2023-11-21T03:33:15;10.80;99.90
14471;DHT22;7321;50.802;4.336;2023-11-21T03:35:41;11.00;99.90
14471;DHT22;7321;50.802;4.336;2023-11-21T03:38:07;10.90;99.90
14471;DHT22;7321;50.802;4.336;2023-11-21T03:40:35;11.00;99.90
14471;DHT22;7321;50.802;4.336;2023-11-21T03:43:01;11.10;99.90
14471;DHT22;7321;50.802;4.336;2023-11-21T03:45:26;11.20;99.90
14471;DHT22;7321;50.802;4.336;2023-11-21T03:47:52;11.30;99.90
14471;DHT22;7321;50.802;4.336;2023-11-21T03:50:18;11.40;99.90
14471;DHT22;7321;50.802;4.336;2023-11-21T03:52:44;11.40;99.90
14471;DHT22;7321;50.802;4.336;2023-11-21T03:55:10;11.50;99.90
14471;DHT22;7321;50.802;4.336;2023-11-21T03:57:36;11.50;99.90
14471;DHT22;7321;50.802;4.336;2023-11-21T04:00:03;11.60;99.90
14471;DHT22;7321;50.802;4.336;2023-11-21T04:02:34;11.60;99.90
14471;DHT22;7321;50.802;4.336;2023-11-21T04:05:00;11.60;99.90
14471;DHT22;7321;50.802;4.336;2023-11-21T04:07:26;11.70;99.90
14471;DHT22;7321;50.802;4.336;2023-11-21T04:09:52;11.70;99.90
14471;DHT22;7321;50.802;4.336;2023-11-21T04:12:19;11.70;99.90
14471;DHT22;7321;50.802;4.336;2023-11-21T04:14:45;11.70;99.90
14471;DHT22;7321;50.802;4.336;2023-11-21T04:17:11;11.80;99.90
14471;DHT22;7321;50.802;4.336;2023-11-21T04:19:36;11.80;99.90
14471;DHT22;7321;50.802;4.336;2023-11-21T04:22:02;11.80;99.90
14471;DHT22;7321;50.802;4.336;2023-11-21T04:24:29;11.80;99.90
14471;DHT22;7321;50.802;4.336;2023-11-21T04:26:55;11.80;99.90
14471;DHT22;7321;50.802;4.336;2023-11-21T04:29:21;11.90;99.90
14471;DHT22;7321;50.802;4.336;2023-11-21T04:31:48;12.00;99.90
14471;DHT22;7321;50.802;4.336;2023-11-21T04:34:15;11.90;99.90
14471;DHT22;7321;50.802;4.336;2023-11-21T04:36:41;12.00;99.90
14471;DHT22;7321;50.802;4.336;2023-11-21T04:39:06;11.80;99.90
14471;DHT22;7321;50.802;4.336;2023-11-21T04:41:32;11.90;99.90
14471;DHT22;7321;50.802;4.336;2023-11-21T04:43:58;11.90;99.90
14471;DHT22;7321;50.802;4.336;2023-11-21T04:46:26;11.90;99.90
14471;DHT22;7321;50.802;4.336;2023-11-21T04:48:52;11.90;99.90
14471;DHT22;7321;50.802;4.336;2023-11-21T04:51:18;12.00;99.90
14471;DHT22;7321;50.802;4.336;2023-11-21T04:53:43;11.90;99.90
14471;DHT22;7321;50.802;4.336;2023-11-21T04:56:09;11.90;99.90
14471;DHT22;7321;50.802;4.336;2023-11-21T04:58:35;11.80;99.90
14471;DHT22;7321;50.802;4.336;2023-11-21T05:01:01;11.90;99.90
14471;DHT22;7321;50.802;4.336;2023-11-21T05:03:27;11.90;99.90
14471;DHT22;7321;50.802;4.336;2023-11-21T05:05:55;12.00;99.90
14471;DHT22;7321;50.802;4.336;2023-11-21T05:08:21;12.00;99.90
14471;DHT22;7321;50.802;4.336;2023-11-21T05:10:48;12.00;99.90
14471;DHT22;7321;50.802;4.336;2023-11-21T05:13:14;12.00;99.90
14471;DHT22;7321;50.802;4.336;2023-11-21T05:15:43;12.00;99.90
14471;DHT22;7321;50.802;4.336;2023-11-21T05:18:09;12.00;99.90
14471;DHT22;7321;50.802;4.336;2023-11-21T05:20:36;12.00;99.90
14471;DHT22;7321;50.802;4.336;2023-11-21T05:23:01;12.10;99.90
14471;DHT22;7321;50.802;4.336;2023-11-21T05:25:27;12.00;99.90
14471;DHT22;7321;50.802;4.336;2023-11-21T05:27:53;12.10;99.90
14471;DHT22;7321;50.802;4.336;2023-11-21T05:30:21;12.00;99.90
14471;DHT22;7321;50.802;4.336;2023-11-21T05:32:47;12.00;99.90
14471;DHT22;7321;50.802;4.336;2023-11-21T05:35:15;12.00;99.90
14471;DHT22;7321;50.802;4.336;2023-11-21T05:37:42;12.10;99.90
14471;DHT22;7321;50.802;4.336;2023-11-21T05:40:08;12.10;99.90
14471;DHT22;7321;50.802;4.336;2023-11-21T05:42:37;12.10;99.90
14471;DHT22;7321;50.802;4.336;2023-11-21T05:45:04;12.10;99.90
14471;DHT22;7321;50.802;4.336;2023-11-21T05:47:41;12.00;99.90
14471;DHT22;7321;50.802;4.336;2023-11-21T05:50:09;12.00;99.90
14471;DHT22;7321;50.802;4.336;2023-11-21T05:52:41;11.90;99.90
14471;DHT22;7321;50.802;4.336;2023-11-21T05:55:07;11.90;99.90
14471;DHT22;7321;50.802;4.336;2023-11-21T05:57:34;11.90;99.90
14471;DHT22;7321;50.802;4.336;2023-11-21T06:00:06;11.90;99.90
14471;DHT22;7321;50.802;4.336;2023-11-21T06:02:39;11.90;99.90
14471;DHT22;7321;50.802;4.336;2023-11-21T06:05:11;12.00;99.90
14471;DHT22;7321;50.802;4.336;2023-11-21T06:07:58;12.10;99.90
14471;DHT22;7321;50.802;4.336;2023-11-21T06:10:24;12.10;99.90
14471;DHT22;7321;50.802;4.336;2023-11-21T06:16:02;12.20;99.90
14471;DHT22;7321;50.802;4.336;2023-11-21T06:18:31;12.20;99.90
14471;DHT22;7321;50.802;4.336;2023-11-21T06:20:57;12.20;99.90
14471;DHT22;7321;50.802;4.336;2023-11-21T06:23:44;12.30;99.90
14471;DHT22;7321;50.802;4.336;2023-11-21T06:26:10;12.20;99.90
14471;DHT22;7321;50.802;4.336;2023-11-21T06:28:40;12.30;99.90
14471;DHT22;7321;50.802;4.336;2023-11-21T06:31:06;12.10;99.90
14471;DHT22;7321;50.802;4.336;2023-11-21T06:33:32;12.10;99.90
14471;DHT22;7321;50.802;4.336;2023-11-21T06:35:58;12.20;99.90
14471;DHT22;7321;50.802;4.336;2023-11-21T06:38:25;12.20;99.90
14471;DHT22;7321;50.802;4.336;2023-11-21T06:41:02;12.20;99.90
14471;DHT22;7321;50.802;4.336;2023-11-21T06:46:27;12.20;99.90
14471;DHT22;7321;50.802;4.336;2023-11-21T06:48:55;12.20;99.90
14471;DHT22;7321;50.802;4.336;2023-11-21T06:51:21;12.20;99.90
14471;DHT22;7321;50.802;4.336;2023-11-21T06:53:47;12.20;99.90
14471;DHT22;7321;50.802;4.336;2023-11-21T06:56:19;12.20;99.90
14471;DHT22;7321;50.802;4.336;2023-11-21T06:58:46;12.20;99.90
14471;DHT22;7321;50.802;4.336;2023-11-21T07:01:13;12.20;99.90
14471;DHT22;7321;50.802;4.336;2023-11-21T07:03:39;12.10;99.90
14471;DHT22;7321;50.802;4.336;2023-11-21T07:06:09;12.10;99.90
14471;DHT22;7321;50.802;4.336;2023-11-21T07:08:38;12.10;99.90
14471;DHT22;7321;50.802;4.336;2023-11-21T07:11:04;12.10;99.90
14471;DHT22;7321;50.802;4.336;2023-11-21T07:13:30;12.00;99.90
14471;DHT22;7321;50.802;4.336;2023-11-21T07:15:57;11.90;99.90
14471;DHT22;7321;50.802;4.336;2023-11-21T07:18:24;12.00;99.90
14471;DHT22;7321;50.802;4.336;2023-11-21T07:20:50;12.00;99.90
14471;DHT22;7321;50.802;4.336;2023-11-21T07:23:15;12.10;99.90
14471;DHT22;7321;50.802;4.336;2023-11-21T07:25:41;12.10;99.90
14471;DHT22;7321;50.802;4.336;2023-11-21T07:28:09;12.10;99.90
14471;DHT22;7321;50.802;4.336;2023-11-21T07:30:35;12.00;99.90
14471;DHT22;7321;50.802;4.336;2023-11-21T07:33:00;11.80;99.90
14471;DHT22;7321;50.802;4.336;2023-11-21T07:35:26;11.90;99.90
14471;DHT22;7321;50.802;4.336;2023-11-21T07:37:52;11.90;99.90
14471;DHT22;7321;50.802;4.336;2023-11-21T07:40:18;12.00;99.90
14471;DHT22;7321;50.802;4.336;2023-11-21T07:42:44;12.10;99.90
14471;DHT22;7321;50.802;4.336;2023-11-21T07:45:10;12.10;99.90
14471;DHT22;7321;50.802;4.336;2023-11-21T07:47:35;12.10;99.90
14471;DHT22;7321;50.802;4.336;2023-11-21T07:50:05;12.20;99.90
14471;DHT22;7321;50.802;4.336;2023-11-21T07:52:32;12.20;99.90
14471;DHT22;7321;50.802;4.336;2023-11-21T07:54:59;12.30;99.90
14471;DHT22;7321;50.802;4.336;2023-11-21T07:57:25;12.30;99.90
14471;DHT22;7321;50.802;4.336;2023-11-21T07:59:51;12.40;99.90
14471;DHT22;7321;50.802;4.336;2023-11-21T08:02:19;12.30;99.90
14471;DHT22;7321;50.802;4.336;2023-11-21T08:04:45;12.30;99.90
14471;DHT22;7321;50.802;4.336;2023-11-21T08:07:10;12.40;99.90
14471;DHT22;7321;50.802;4.336;2023-11-21T08:09:36;12.40;99.90
14471;DHT22;7321;50.802;4.336;2023-11-21T08:12:02;12.50;99.90
14471;DHT22;7321;50.802;4.336;2023-11-21T08:14:28;12.50;99.90
14471;DHT22;7321;50.802;4.336;2023-11-21T08:16:54;12.50;99.90
14471;DHT22;7321;50.802;4.336;2023-11-21T08:19:23;12.40;99.90
14471;DHT22;7321;50.802;4.336;2023-11-21T08:21:50;12.40;99.90
14471;DHT22;7321;50.802;4.336;2023-11-21T08:24:16;12.50;99.90
14471;DHT22;7321;50.802;4.336;2023-11-21T08:26:42;12.40;99.90
14471;DHT22;7321;50.802;4.336;2023-11-21T08:29:08;12.40;99.90
14471;DHT22;7321;50.802;4.336;2023-11-21T08:31:34;12.50;99.90
14471;DHT22;7321;50.802;4.336;2023-11-21T08:34:00;12.50;99.90
14471;DHT22;7321;50.802;4.336;2023-11-21T08:36:28;12.50;99.90
14471;DHT22;7321;50.802;4.336;2023-11-21T08:38:54;12.60;99.90
14471;DHT22;7321;50.802;4.336;2023-11-21T08:41:20;12.60;99.90
14471;DHT22;7321;50.802;4.336;2023-11-21T08:43:49;12.50;99.90
14471;DHT22;7321;50.802;4.336;2023-11-21T08:46:16;12.60;99.90
14471;DHT22;7321;50.802;4.336;2023-11-21T08:48:43;12.50;99.90
14471;DHT22;7321;50.802;4.336;2023-11-21T08:51:10;12.60;99.90
14471;DHT22;7321;50.802;4.336;2023-11-21T08:53:39;12.60;99.90
14471;DHT22;7321;50.802;4.336;2023-11-21T08:56:06;12.50;99.90
14471;DHT22;7321;50.802;4.336;2023-11-21T08:58:32;12.50;99.90
14471;DHT22;7321;50.802;4.336;2023-11-21T09:00:58;12.30;99.90
14471;DHT22;7321;50.802;4.336;2023-11-21T09:03:24;12.50;99.90
14471;DHT22;7321;50.802;4.336;2023-11-21T09:05:50;12.50;99.90
14471;DHT22;7321;50.802;4.336;2023-11-21T09:08:16;12.60;99.90
14471;DHT22;7321;50.802;4.336;2023-11-21T09:10:42;12.70;99.90
14471;DHT22;7321;50.802;4.336;2023-11-21T09:13:10;12.50;99.90
14471;DHT22;7321;50.802;4.336;2023-11-21T09:15:36;12.60;99.90
14471;DHT22;7321;50.802;4.336;2023-11-21T09:18:02;12.50;99.90
14471;DHT22;7321;50.802;4.336;2023-11-21T09:20:28;12.50;99.90
14471;DHT22;7321;50.802;4.336;2023-11-21T09:22:54;12.50;99.90
14471;DHT22;7321;50.802;4.336;2023-11-21T09:25:21;12.60;99.90
14471;DHT22;7321;50.802;4.336;2023-11-21T09:27:48;12.60;99.90
14471;DHT22;7321;50.802;4.336;2023-11-21T09:30:14;12.70;99.90
14471;DHT22;7321;50.802;4.336;2023-11-21T09:32:40;12.70;99.90
14471;DHT22;7321;50.802;4.336;2023-11-21T09:35:06;12.70;99.90
14471;DHT22;7321;50.802;4.336;2023-11-21T09:37:35;12.80;99.90
14471;DHT22;7321;50.802;4.336;2023-11-21T09:40:01;12.80;99.90
14471;DHT22;7321;50.802;4.336;2023-11-21T09:45:28;12.90;99.90
14471;DHT22;7321;50.802;4.336;2023-11-21T09:47:55;12.90;99.90
14471;DHT22;7321;50.802;4.336;2023-11-21T09:50:22;13.00;99.90
14471;DHT22;7321;50.802;4.336;2023-11-21T09:53:21;13.00;99.90
14471;DHT22;7321;50.802;4.336;2023-11-21T09:55:48;12.90;99.90
14471;DHT22;7321;50.802;4.336;2023-11-21T09:58:18;13.00;99.90
14471;DHT22;7321;50.802;4.336;2023-11-21T10:00:46;13.00;99.90
14471;DHT22;7321;50.802;4.336;2023-11-21T10:03:12;13.00;99.90
14471;DHT22;7321;50.802;4.336;2023-11-21T10:05:39;12.90;99.90
14471;DHT22;7321;50.802;4.336;2023-11-21T10:08:10;12.80;99.90
14471;DHT22;7321;50.802;4.336;2023-11-21T10:10:43;12.90;99.90
14471;DHT22;7321;50.802;4.336;2023-11-21T10:13:14;13.00;99.90
14471;DHT22;7321;50.802;4.336;2023-11-21T10:15:42;13.00;99.90
14471;DHT22;7321;50.802;4.336;2023-11-21T10:18:14;12.90;99.90
14471;DHT22;7321;50.802;4.336;2023-11-21T10:20:41;12.60;99.90
14471;DHT22;7321;50.802;4.336;2023-11-21T10:23:08;12.60;99.90
14471;DHT22;7321;50.802;4.336;2023-11-21T10:25:37;12.70;99.90
14471;DHT22;7321;50.802;4.336;2023-11-21T10:28:03;12.60;99.90
14471;DHT22;7321;50.802;4.336;2023-11-21T10:30:34;12.60;99.90
14471;DHT22;7321;50.802;4.336;2023-11-21T10:33:04;12.50;99.90
14471;DHT22;7321;50.802;4.336;2023-11-21T10:35:44;12.20;99.90
14471;DHT22;7321;50.802;4.336;2023-11-21T10:38:20;11.90;99.90
14471;DHT22;7321;50.802;4.336;2023-11-21T10:40:52;11.70;99.90
14471;DHT22;7321;50.802;4.336;2023-11-21T10:43:18;11.50;99.90
14471;DHT22;7321;50.802;4.336;2023-11-21T10:45:44;11.60;99.90
14471;DHT22;7321;50.802;4.336;2023-11-21T10:48:15;11.70;99.90
14471;DHT22;7321;50.802;4.336;2023-11-21T10:50:42;11.60;99.90
14471;DHT22;7321;50.802;4.336;2023-11-21T10:53:08;11.70;99.90
14471;DHT22;7321;50.802;4.336;2023-11-21T10:55:34;11.90;99.90
14471;DHT22;7321;50.802;4.336;2023-11-21T10:58:03;11.80;99.90
14471;DHT22;7321;50.802;4.336;2023-11-21T11:00:31;11.60;99.90
14471;DHT22;7321;50.802;4.336;2023-11-21T11:02:57;11.50;99.90
14471;DHT22;7321;50.802;4.336;2023-11-21T11:05:26;11.60;99.90
14471;DHT22;7321;50.802;4.336;2023-11-21T11:08:05;11.60;99.90
14471;DHT22;7321;50.802;4.336;2023-11-21T11:10:32;11.60;99.90
14471;DHT22;7321;50.802;4.336;2023-11-21T11:12:58;11.90;99.90
14471;DHT22;7321;50.802;4.336;2023-11-21T11:15:25;12.00;99.90
14471;DHT22;7321;50.802;4.336;2023-11-21T11:17:53;12.10;99.90
14471;DHT22;7321;50.802;4.336;2023-11-21T11:20:27;12.20;99.90
14471;DHT22;7321;50.802;4.336;2023-11-21T11:28:26;12.50;99.90
14471;DHT22;7321;50.802;4.336;2023-11-21T11:33:57;12.60;99.90
14471;DHT22;7321;50.802;4.336;2023-11-21T11:36:39;12.80;99.90
14471;DHT22;7321;50.802;4.336;2023-11-21T11:39:34;12.80;99.90
14471;DHT22;7321;50.802;4.336;2023-11-21T11:42:03;12.60;99.90
14471;DHT22;7321;50.802;4.336;2023-11-21T11:54:59;12.80;99.90
14471;DHT22;7321;50.802;4.336;2023-11-21T11:57:25;12.60;99.90
14471;DHT22;7321;50.802;4.336;2023-11-21T12:02:54;12.90;99.90
14471;DHT22;7321;50.802;4.336;2023-11-21T12:05:23;12.80;99.90
14471;DHT22;7321;50.802;4.336;2023-11-21T12:07:55;12.70;99.90
14471;DHT22;7321;50.802;4.336;2023-11-21T12:10:24;12.50;99.90
14471;DHT22;7321;50.802;4.336;2023-11-21T12:13:01;12.40;99.90
14471;DHT22;7321;50.802;4.336;2023-11-21T12:15:28;12.20;99.90
14471;DHT22;7321;50.802;4.336;2023-11-21T12:17:57;11.90;99.90
14471;DHT22;7321;50.802;4.336;2023-11-21T12:20:27;12.00;99.90
14471;DHT22;7321;50.802;4.336;2023-11-21T12:22:58;12.00;99.90
14471;DHT22;7321;50.802;4.336;2023-11-21T12:25:29;12.00;99.90
14471;DHT22;7321;50.802;4.336;2023-11-21T12:27:57;12.00;99.90
14471;DHT22;7321;50.802;4.336;2023-11-21T12:30:25;11.90;99.90
14471;DHT22;7321;50.802;4.336;2023-11-21T12:32:54;11.80;99.90
14471;DHT22;7321;50.802;4.336;2023-11-21T12:35:25;11.60;99.90
14471;DHT22;7321;50.802;4.336;2023-11-21T12:37:53;11.60;99.90
14471;DHT22;7321;50.802;4.336;2023-11-21T12:40:20;11.50;99.90
14471;DHT22;7321;50.802;4.336;2023-11-21T12:42:52;11.60;99.90
14471;DHT22;7321;50.802;4.336;2023-11-21T12:45:23;11.70;99.90
14471;DHT22;7321;50.802;4.336;2023-11-21T12:47:55;11.60;99.90
14471;DHT22;7321;50.802;4.336;2023-11-21T12:50:25;11.60;99.90
14471;DHT22;7321;50.802;4.336;2023-11-21T12:52:58;11.80;99.90
14471;DHT22;7321;50.802;4.336;2023-11-21T12:55:24;11.80;99.90
14471;DHT22;7321;50.802;4.336;2023-11-21T12:57:53;11.70;99.90
14471;DHT22;7321;50.802;4.336;2023-11-21T13:00:55;11.80;99.90
14471;DHT22;7321;50.802;4.336;2023-11-21T13:03:22;11.80;99.90
14471;DHT22;7321;50.802;4.336;2023-11-21T13:05:51;11.60;99.90
14471;DHT22;7321;50.802;4.336;2023-11-21T13:08:21;11.70;99.90
14471;DHT22;7321;50.802;4.336;2023-11-21T13:10:53;11.60;99.90
14471;DHT22;7321;50.802;4.336;2023-11-21T13:13:19;11.60;99.90
14471;DHT22;7321;50.802;4.336;2023-11-21T13:15:53;11.50;99.90
14471;DHT22;7321;50.802;4.336;2023-11-21T13:18:24;11.40;99.90
14471;DHT22;7321;50.802;4.336;2023-11-21T13:20:55;11.50;99.90
14471;DHT22;7321;50.802;4.336;2023-11-21T13:23:22;11.50;99.90
14471;DHT22;7321;50.802;4.336;2023-11-21T13:25:48;11.50;99.90
14471;DHT22;7321;50.802;4.336;2023-11-21T13:28:15;11.70;99.90
14471;DHT22;7321;50.802;4.336;2023-11-21T13:30:41;11.90;99.90
14471;DHT22;7321;50.802;4.336;2023-11-21T13:33:08;11.90;99.90
14471;DHT22;7321;50.802;4.336;2023-11-21T13:35:35;11.90;99.90
14471;DHT22;7321;50.802;4.336;2023-11-21T13:38:18;11.80;99.90
14471;DHT22;7321;50.802;4.336;2023-11-21T13:40:51;11.70;99.90
14471;DHT22;7321;50.802;4.336;2023-11-21T13:43:25;11.70;99.90
14471;DHT22;7321;50.802;4.336;2023-11-21T13:45:52;11.90;99.90
14471;DHT22;7321;50.802;4.336;2023-11-21T13:48:29;11.90;99.90
14471;DHT22;7321;50.802;4.336;2023-11-21T13:51:06;11.60;99.90
14471;DHT22;7321;50.802;4.336;2023-11-21T13:53:49;11.60;99.90
14471;DHT22;7321;50.802;4.336;2023-11-21T13:56:19;11.50;99.90
14471;DHT22;7321;50.802;4.336;2023-11-21T13:58:49;11.60;99.90
14471;DHT22;7321;50.802;4.336;2023-11-21T14:01:20;11.50;99.90
14471;DHT22;7321;50.802;4.336;2023-11-21T14:03:56;11.40;99.90
14471;DHT22;7321;50.802;4.336;2023-11-21T14:06:28;11.50;99.90
14471;DHT22;7321;50.802;4.336;2023-11-21T14:09:03;11.30;99.90
14471;DHT22;7321;50.802;4.336;2023-11-21T14:11:31;11.40;99.90
14471;DHT22;7321;50.802;4.336;2023-11-21T14:13:57;11.60;99.90
14471;DHT22;7321;50.802;4.336;2023-11-21T14:16:25;11.60;99.90
14471;DHT22;7321;50.802;4.336;2023-11-21T14:18:51;11.60;99.90
14471;DHT22;7321;50.802;4.336;2023-11-21T14:21:27;11.50;99.90
14471;DHT22;7321;50.802;4.336;2023-11-21T14:23:53;11.50;99.90
14471;DHT22;7321;50.802;4.336;2023-11-21T14:26:21;11.30;99.90
14471;DHT22;7321;50.802;4.336;2023-11-21T14:28:46;11.30;99.90
14471;DHT22;7321;50.802;4.336;2023-11-21T14:31:14;11.20;99.90
14471;DHT22;7321;50.802;4.336;2023-11-21T14:33:45;11.20;99.90
14471;DHT22;7321;50.802;4.336;2023-11-21T14:36:11;11.30;99.90
14471;DHT22;7321;50.802;4.336;2023-11-21T14:38:37;11.20;99.90
14471;DHT22;7321;50.802;4.336;2023-11-21T14:41:05;11.30;99.90
14471;DHT22;7321;50.802;4.336;2023-11-21T14:43:34;11.50;99.90
14471;DHT22;7321;50.802;4.336;2023-11-21T14:46:02;11.50;99.90
14471;DHT22;7321;50.802;4.336;2023-11-21T14:48:29;11.50;99.90
14471;DHT22;7321;50.802;4.336;2023-11-21T14:51:11;11.50;99.90
14471;DHT22;7321;50.802;4.336;2023-11-21T14:53:55;11.30;99.90
14471;DHT22;7321;50.802;4.336;2023-11-21T14:56:28;11.40;99.90
14471;DHT22;7321;50.802;4.336;2023-11-21T14:59:00;11.50;99.90
14471;DHT22;7321;50.802;4.336;2023-11-21T15:01:38;11.50;99.90
14471;DHT22;7321;50.802;4.336;2023-11-21T15:04:21;11.50;99.90
14471;DHT22;7321;50.802;4.336;2023-11-21T15:07:04;11.70;99.90
14471;DHT22;7321;50.802;4.336;2023-11-21T15:09:30;11.70;99.90
14471;DHT22;7321;50.802;4.336;2023-11-21T15:11:59;11.70;99.90
14471;DHT22;7321;50.802;4.336;2023-11-21T15:14:38;11.50;99.90
14471;DHT22;7321;50.802;4.336;2023-11-21T15:17:03;11.30;99.90
14471;DHT22;7321;50.802;4.336;2023-11-21T15:19:30;11.20;99.90
14471;DHT22;7321;50.802;4.336;2023-11-21T15:21:57;11.10;99.90
14471;DHT22;7321;50.802;4.336;2023-11-21T15:24:26;11.10;99.90
14471;DHT22;7321;50.802;4.336;2023-11-21T15:26:52;11.00;99.90
14471;DHT22;7321;50.802;4.336;2023-11-21T15:29:19;11.00;99.90
14471;DHT22;7321;50.802;4.336;2023-11-21T15:31:46;11.00;99.90
14471;DHT22;7321;50.802;4.336;2023-11-21T15:34:16;11.00;99.90
14471;DHT22;7321;50.802;4.336;2023-11-21T15:36:43;11.00;99.90
14471;DHT22;7321;50.802;4.336;2023-11-21T15:39:09;11.00;99.90
14471;DHT22;7321;50.802;4.336;2023-11-21T15:41:38;11.00;99.90
14471;DHT22;7321;50.802;4.336;2023-11-21T15:44:05;11.10;99.90
14471;DHT22;7321;50.802;4.336;2023-11-21T15:46:34;11.10;99.90
14471;DHT22;7321;50.802;4.336;2023-11-21T15:49:01;11.00;99.90
14471;DHT22;7321;50.802;4.336;2023-11-21T15:51:29;11.00;99.90
14471;DHT22;7321;50.802;4.336;2023-11-21T15:53:55;11.00;99.90
14471;DHT22;7321;50.802;4.336;2023-11-21T15:56:21;11.00;99.90
14471;DHT22;7321;50.802;4.336;2023-11-21T15:58:48;11.00;99.90
14471;DHT22;7321;50.802;4.336;2023-11-21T16:01:14;11.00;99.90
14471;DHT22;7321;50.802;4.336;2023-11-21T16:03:40;11.00;99.90
14471;DHT22;7321;50.802;4.336;2023-11-21T16:06:06;10.90;99.90
14471;DHT22;7321;50.802;4.336;2023-11-21T16:08:36;11.10;99.90
14471;DHT22;7321;50.802;4.336;2023-11-21T16:11:02;10.80;99.90
14471;DHT22;7321;50.802;4.336;2023-11-21T16:13:29;10.80;99.90
14471;DHT22;7321;50.802;4.336;2023-11-21T16:15:55;10.80;99.90
14471;DHT22;7321;50.802;4.336;2023-11-21T16:18:21;10.80;99.90
14471;DHT22;7321;50.802;4.336;2023-11-21T16:20:47;10.90;99.90